sensor_id;sensor_type;location;lat;lon;timestamp;P1;durP1;ratioP1;P2;durP2;ratioP2
12703;SDS011;6416;52.182;7.650;2023-10-08T00:00:04;6.82;;;3.40;;
12703;SDS011;6416;52.182;7.650;2023-10-08T00:02:30;7.75;;;3.90;;
12703;SDS011;6416;52.182;7.650;2023-10-08T00:04:55;9.13;;;3.78;;
12703;SDS011;6416;52.182;7.650;2023-10-08T00:07:21;6.78;;;3.80;;
12703;SDS011;6416;52.182;7.650;2023-10-08T00:09:50;7.75;;;3.75;;
12703;SDS011;6416;52.182;7.650;2023-10-08T00:12:16;6.40;;;3.90;;
12703;SDS011;6416;52.182;7.650;2023-10-08T00:14:42;8.43;;;3.85;;
12703;SDS011;6416;52.182;7.650;2023-10-08T00:17:08;7.78;;;4.22;;
12703;SDS011;6416;52.182;7.650;2023-10-08T00:19:33;7.32;;;4.07;;
12703;SDS011;6416;52.182;7.650;2023-10-08T00:21:59;8.68;;;3.55;;
12703;SDS011;6416;52.182;7.650;2023-10-08T00:24:24;10.20;;;4.40;;
12703;SDS011;6416;52.182;7.650;2023-10-08T00:26:50;5.53;;;3.70;;
12703;SDS011;6416;52.182;7.650;2023-10-08T00:29:15;6.93;;;3.92;;
12703;SDS011;6416;52.182;7.650;2023-10-08T00:31:41;7.90;;;3.65;;
12703;SDS011;6416;52.182;7.650;2023-10-08T00:34:10;8.60;;;3.70;;
12703;SDS011;6416;52.182;7.650;2023-10-08T00:36:37;6.32;;;3.95;;
12703;SDS011;6416;52.182;7.650;2023-10-08T00:39:07;8.00;;;3.92;;
12703;SDS011;6416;52.182;7.650;2023-10-08T00:41:33;11.18;;;4.28;;
12703;SDS011;6416;52.182;7.650;2023-10-08T00:43:58;7.13;;;4.10;;
12703;SDS011;6416;52.182;7.650;2023-10-08T00:46:24;7.78;;;3.83;;
12703;SDS011;6416;52.182;7.650;2023-10-08T00:48:50;7.32;;;4.35;;
12703;SDS011;6416;52.182;7.650;2023-10-08T00:51:17;7.25;;;3.67;;
12703;SDS011;6416;52.182;7.650;2023-10-08T00:53:43;8.13;;;4.72;;
12703;SDS011;6416;52.182;7.650;2023-10-08T00:56:09;17.27;;;5.22;;
12703;SDS011;6416;52.182;7.650;2023-10-08T00:58:35;9.55;;;4.90;;
12703;SDS011;6416;52.182;7.650;2023-10-08T01:01:01;9.80;;;4.03;;
12703;SDS011;6416;52.182;7.650;2023-10-08T01:03:27;11.32;;;4.90;;
12703;SDS011;6416;52.182;7.650;2023-10-08T01:05:54;9.38;;;4.28;;
12703;SDS011;6416;52.182;7.650;2023-10-08T01:08:20;9.27;;;4.70;;
12703;SDS011;6416;52.182;7.650;2023-10-08T01:10:47;8.95;;;4.22;;
12703;SDS011;6416;52.182;7.650;2023-10-08T01:13:13;8.43;;;4.43;;
12703;SDS011;6416;52.182;7.650;2023-10-08T01:15:38;8.35;;;4.57;;
12703;SDS011;6416;52.182;7.650;2023-10-08T01:18:04;7.18;;;4.32;;
12703;SDS011;6416;52.182;7.650;2023-10-08T01:20:29;4.47;;;2.95;;
12703;SDS011;6416;52.182;7.650;2023-10-08T01:22:55;4.78;;;2.08;;
12703;SDS011;6416;52.182;7.650;2023-10-08T01:25:21;2.17;;;1.52;;
12703;SDS011;6416;52.182;7.650;2023-10-08T01:27:46;2.75;;;1.35;;
12703;SDS011;6416;52.182;7.650;2023-10-08T01:30:12;1.15;;;0.98;;
12703;SDS011;6416;52.182;7.650;2023-10-08T01:32:37;0.80;;;0.80;;
12703;SDS011;6416;52.182;7.650;2023-10-08T01:35:03;0.90;;;0.70;;
12703;SDS011;6416;52.182;7.650;2023-10-08T01:37:29;0.50;;;0.50;;
12703;SDS011;6416;52.182;7.650;2023-10-08T01:39:54;0.50;;;0.50;;
12703;SDS011;6416;52.182;7.650;2023-10-08T01:42:20;0.50;;;0.50;;
12703;SDS011;6416;52.182;7.650;2023-10-08T01:44:46;0.55;;;0.55;;
12703;SDS011;6416;52.182;7.650;2023-10-08T01:47:12;0.60;;;0.60;;
12703;SDS011;6416;52.182;7.650;2023-10-08T01:49:38;0.50;;;0.50;;
12703;SDS011;6416;52.182;7.650;2023-10-08T01:52:04;0.50;;;0.50;;
12703;SDS011;6416;52.182;7.650;2023-10-08T01:54:29;0.50;;;0.50;;
12703;SDS011;6416;52.182;7.650;2023-10-08T01:56:55;0.40;;;0.40;;
12703;SDS011;6416;52.182;7.650;2023-10-08T01:59:20;0.45;;;0.45;;
12703;SDS011;6416;52.182;7.650;2023-10-08T02:01:46;0.50;;;0.50;;
12703;SDS011;6416;52.182;7.650;2023-10-08T02:04:11;0.50;;;0.50;;
12703;SDS011;6416;52.182;7.650;2023-10-08T02:06:36;0.50;;;0.50;;
12703;SDS011;6416;52.182;7.650;2023-10-08T02:09:02;0.47;;;0.47;;
12703;SDS011;6416;52.182;7.650;2023-10-08T02:11:28;0.40;;;0.40;;
12703;SDS011;6416;52.182;7.650;2023-10-08T02:13:53;0.68;;;0.50;;
12703;SDS011;6416;52.182;7.650;2023-10-08T02:16:20;0.40;;;0.40;;
12703;SDS011;6416;52.182;7.650;2023-10-08T02:18:45;0.40;;;0.40;;
12703;SDS011;6416;52.182;7.650;2023-10-08T02:21:11;0.40;;;0.40;;
12703;SDS011;6416;52.182;7.650;2023-10-08T02:23:36;0.50;;;0.50;;
12703;SDS011;6416;52.182;7.650;2023-10-08T02:26:02;0.47;;;0.47;;
12703;SDS011;6416;52.182;7.650;2023-10-08T02:28:27;0.40;;;0.40;;
12703;SDS011;6416;52.182;7.650;2023-10-08T02:30:53;0.50;;;0.50;;
12703;SDS011;6416;52.182;7.650;2023-10-08T02:33:18;0.50;;;0.50;;
12703;SDS011;6416;52.182;7.650;2023-10-08T02:35:44;0.60;;;0.60;;
12703;SDS011;6416;52.182;7.650;2023-10-08T02:38:12;0.50;;;0.50;;
12703;SDS011;6416;52.182;7.650;2023-10-08T02:40:39;0.68;;;0.68;;
12703;SDS011;6416;52.182;7.650;2023-10-08T02:43:04;0.68;;;0.68;;
12703;SDS011;6416;52.182;7.650;2023-10-08T02:45:30;0.60;;;0.60;;
12703;SDS011;6416;52.182;7.650;2023-10-08T02:47:56;0.60;;;0.60;;
12703;SDS011;6416;52.182;7.650;2023-10-08T02:50:22;2.38;;;0.63;;
12703;SDS011;6416;52.182;7.650;2023-10-08T02:52:48;0.57;;;0.57;;
12703;SDS011;6416;52.182;7.650;2023-10-08T02:55:14;0.50;;;0.50;;
12703;SDS011;6416;52.182;7.650;2023-10-08T02:57:39;0.50;;;0.50;;
12703;SDS011;6416;52.182;7.650;2023-10-08T03:00:05;2.00;;;0.50;;
12703;SDS011;6416;52.182;7.650;2023-10-08T03:02:31;0.57;;;0.57;;
12703;SDS011;6416;52.182;7.650;2023-10-08T03:04:57;0.63;;;0.50;;
12703;SDS011;6416;52.182;7.650;2023-10-08T03:07:22;0.80;;;0.50;;
12703;SDS011;6416;52.182;7.650;2023-10-08T03:09:48;0.45;;;0.45;;
12703;SDS011;6416;52.182;7.650;2023-10-08T03:12:14;0.60;;;0.50;;
12703;SDS011;6416;52.182;7.650;2023-10-08T03:14:40;0.73;;;0.50;;
12703;SDS011;6416;52.182;7.650;2023-10-08T03:17:07;0.40;;;0.40;;
12703;SDS011;6416;52.182;7.650;2023-10-08T03:19:32;1.02;;;0.68;;
12703;SDS011;6416;52.182;7.650;2023-10-08T03:21:58;0.95;;;0.50;;
12703;SDS011;6416;52.182;7.650;2023-10-08T03:24:23;0.80;;;0.60;;
12703;SDS011;6416;52.182;7.650;2023-10-08T03:26:49;0.50;;;0.50;;
12703;SDS011;6416;52.182;7.650;2023-10-08T03:29:15;0.63;;;0.63;;
12703;SDS011;6416;52.182;7.650;2023-10-08T03:31:43;0.70;;;0.70;;
12703;SDS011;6416;52.182;7.650;2023-10-08T03:34:10;0.60;;;0.60;;
12703;SDS011;6416;52.182;7.650;2023-10-08T03:36:36;0.50;;;0.50;;
12703;SDS011;6416;52.182;7.650;2023-10-08T03:39:01;0.50;;;0.50;;
12703;SDS011;6416;52.182;7.650;2023-10-08T03:41:27;0.50;;;0.50;;
12703;SDS011;6416;52.182;7.650;2023-10-08T03:43:52;0.45;;;0.45;;
12703;SDS011;6416;52.182;7.650;2023-10-08T03:46:21;0.50;;;0.50;;
12703;SDS011;6416;52.182;7.650;2023-10-08T03:48:47;0.50;;;0.50;;
12703;SDS011;6416;52.182;7.650;2023-10-08T03:51:12;0.50;;;0.50;;
12703;SDS011;6416;52.182;7.650;2023-10-08T03:53:39;0.55;;;0.55;;
12703;SDS011;6416;52.182;7.650;2023-10-08T03:56:04;1.00;;;0.60;;
12703;SDS011;6416;52.182;7.650;2023-10-08T03:58:30;0.60;;;0.60;;
12703;SDS011;6416;52.182;7.650;2023-10-08T04:00:55;0.60;;;0.60;;
12703;SDS011;6416;52.182;7.650;2023-10-08T04:03:21;0.60;;;0.60;;
12703;SDS011;6416;52.182;7.650;2023-10-08T04:05:46;0.80;;;0.80;;
12703;SDS011;6416;52.182;7.650;2023-10-08T04:08:12;0.70;;;0.70;;
12703;SDS011;6416;52.182;7.650;2023-10-08T04:10:37;0.70;;;0.70;;
12703;SDS011;6416;52.182;7.650;2023-10-08T04:13:03;1.10;;;0.90;;
12703;SDS011;6416;52.182;7.650;2023-10-08T04:15:29;1.23;;;0.88;;
12703;SDS011;6416;52.182;7.650;2023-10-08T04:17:54;0.80;;;0.80;;
12703;SDS011;6416;52.182;7.650;2023-10-08T04:20:20;1.23;;;0.90;;
12703;SDS011;6416;52.182;7.650;2023-10-08T04:22:45;0.77;;;0.77;;
12703;SDS011;6416;52.182;7.650;2023-10-08T04:25:10;1.90;;;0.88;;
12703;SDS011;6416;52.182;7.650;2023-10-08T04:27:36;1.15;;;0.98;;
12703;SDS011;6416;52.182;7.650;2023-10-08T04:30:01;1.33;;;0.90;;
12703;SDS011;6416;52.182;7.650;2023-10-08T04:32:27;0.90;;;0.90;;
12703;SDS011;6416;52.182;7.650;2023-10-08T04:34:52;1.13;;;0.90;;
12703;SDS011;6416;52.182;7.650;2023-10-08T04:37:18;0.90;;;0.90;;
12703;SDS011;6416;52.182;7.650;2023-10-08T04:39:43;1.20;;;1.10;;
12703;SDS011;6416;52.182;7.650;2023-10-08T04:42:09;1.10;;;1.00;;
12703;SDS011;6416;52.182;7.650;2023-10-08T04:44:34;0.93;;;0.93;;
12703;SDS011;6416;52.182;7.650;2023-10-08T04:47:00;1.00;;;1.00;;
12703;SDS011;6416;52.182;7.650;2023-10-08T04:49:26;1.17;;;1.07;;
12703;SDS011;6416;52.182;7.650;2023-10-08T04:51:52;1.77;;;1.10;;
12703;SDS011;6416;52.182;7.650;2023-10-08T04:54:28;0.87;;;0.87;;
12703;SDS011;6416;52.182;7.650;2023-10-08T04:56:54;0.80;;;0.80;;
12703;SDS011;6416;52.182;7.650;2023-10-08T04:59:19;0.90;;;0.90;;
12703;SDS011;6416;52.182;7.650;2023-10-08T05:01:44;1.27;;;1.03;;
12703;SDS011;6416;52.182;7.650;2023-10-08T05:04:10;1.23;;;1.13;;
12703;SDS011;6416;52.182;7.650;2023-10-08T05:06:35;1.03;;;1.03;;
12703;SDS011;6416;52.182;7.650;2023-10-08T05:09:11;1.20;;;1.10;;
12703;SDS011;6416;52.182;7.650;2023-10-08T05:11:37;1.30;;;1.20;;
12703;SDS011;6416;52.182;7.650;2023-10-08T05:14:03;1.58;;;1.48;;
12703;SDS011;6416;52.182;7.650;2023-10-08T05:16:29;1.37;;;1.27;;
12703;SDS011;6416;52.182;7.650;2023-10-08T05:18:54;1.40;;;1.30;;
12703;SDS011;6416;52.182;7.650;2023-10-08T05:21:20;2.45;;;1.40;;
12703;SDS011;6416;52.182;7.650;2023-10-08T05:23:45;1.45;;;1.33;;
12703;SDS011;6416;52.182;7.650;2023-10-08T05:26:11;1.25;;;1.23;;
12703;SDS011;6416;52.182;7.650;2023-10-08T05:28:37;1.20;;;1.10;;
12703;SDS011;6416;52.182;7.650;2023-10-08T05:31:06;1.60;;;1.50;;
12703;SDS011;6416;52.182;7.650;2023-10-08T05:33:32;1.40;;;1.30;;
12703;SDS011;6416;52.182;7.650;2023-10-08T05:35:58;1.40;;;1.30;;
12703;SDS011;6416;52.182;7.650;2023-10-08T05:38:23;1.42;;;1.25;;
12703;SDS011;6416;52.182;7.650;2023-10-08T05:40:52;1.73;;;1.63;;
12703;SDS011;6416;52.182;7.650;2023-10-08T05:43:18;1.70;;;1.60;;
12703;SDS011;6416;52.182;7.650;2023-10-08T05:45:43;1.67;;;1.57;;
12703;SDS011;6416;52.182;7.650;2023-10-08T05:48:09;1.83;;;1.73;;
12703;SDS011;6416;52.182;7.650;2023-10-08T05:50:34;2.13;;;2.03;;
12703;SDS011;6416;52.182;7.650;2023-10-08T05:53:00;1.67;;;1.57;;
12703;SDS011;6416;52.182;7.650;2023-10-08T05:55:25;1.93;;;1.83;;
12703;SDS011;6416;52.182;7.650;2023-10-08T05:58:03;2.08;;;1.95;;
12703;SDS011;6416;52.182;7.650;2023-10-08T06:00:30;2.08;;;1.98;;
12703;SDS011;6416;52.182;7.650;2023-10-08T06:02:55;2.50;;;1.95;;
12703;SDS011;6416;52.182;7.650;2023-10-08T06:05:20;1.93;;;1.80;;
12703;SDS011;6416;52.182;7.650;2023-10-08T06:07:47;1.80;;;1.70;;
12703;SDS011;6416;52.182;7.650;2023-10-08T06:10:14;2.17;;;2.08;;
12703;SDS011;6416;52.182;7.650;2023-10-08T06:12:40;1.92;;;1.80;;
12703;SDS011;6416;52.182;7.650;2023-10-08T06:15:06;2.00;;;1.90;;
12703;SDS011;6416;52.182;7.650;2023-10-08T06:17:32;2.17;;;2.08;;
12703;SDS011;6416;52.182;7.650;2023-10-08T06:19:58;2.13;;;2.03;;
12703;SDS011;6416;52.182;7.650;2023-10-08T06:22:23;2.60;;;2.40;;
12703;SDS011;6416;52.182;7.650;2023-10-08T06:24:49;2.10;;;1.98;;
12703;SDS011;6416;52.182;7.650;2023-10-08T06:27:14;2.40;;;2.23;;
12703;SDS011;6416;52.182;7.650;2023-10-08T06:29:39;2.15;;;2.05;;
12703;SDS011;6416;52.182;7.650;2023-10-08T06:32:05;2.10;;;2.00;;
12703;SDS011;6416;52.182;7.650;2023-10-08T06:34:30;2.47;;;2.28;;
12703;SDS011;6416;52.182;7.650;2023-10-08T06:36:57;2.33;;;2.13;;
12703;SDS011;6416;52.182;7.650;2023-10-08T06:39:24;2.60;;;2.40;;
12703;SDS011;6416;52.182;7.650;2023-10-08T06:41:50;2.63;;;2.42;;
12703;SDS011;6416;52.182;7.650;2023-10-08T06:44:16;2.78;;;2.38;;
12703;SDS011;6416;52.182;7.650;2023-10-08T06:46:41;2.47;;;2.28;;
12703;SDS011;6416;52.182;7.650;2023-10-08T06:49:08;2.37;;;2.17;;
12703;SDS011;6416;52.182;7.650;2023-10-08T06:51:34;2.72;;;2.53;;
12703;SDS011;6416;52.182;7.650;2023-10-08T06:54:01;2.58;;;2.38;;
12703;SDS011;6416;52.182;7.650;2023-10-08T06:56:26;2.80;;;2.60;;
12703;SDS011;6416;52.182;7.650;2023-10-08T06:58:51;2.33;;;2.13;;
12703;SDS011;6416;52.182;7.650;2023-10-08T07:01:17;2.50;;;2.30;;
12703;SDS011;6416;52.182;7.650;2023-10-08T07:03:43;3.03;;;2.73;;
12703;SDS011;6416;52.182;7.650;2023-10-08T07:06:08;3.15;;;2.85;;
12703;SDS011;6416;52.182;7.650;2023-10-08T07:08:34;3.15;;;2.63;;
12703;SDS011;6416;52.182;7.650;2023-10-08T07:11:00;3.10;;;2.80;;
12703;SDS011;6416;52.182;7.650;2023-10-08T07:13:27;2.70;;;2.50;;
12703;SDS011;6416;52.182;7.650;2023-10-08T07:15:52;2.73;;;2.53;;
12703;SDS011;6416;52.182;7.650;2023-10-08T07:18:18;2.70;;;2.50;;
12703;SDS011;6416;52.182;7.650;2023-10-08T07:20:44;2.60;;;2.35;;
12703;SDS011;6416;52.182;7.650;2023-10-08T07:23:11;2.60;;;2.40;;
12703;SDS011;6416;52.182;7.650;2023-10-08T07:25:37;3.60;;;3.30;;
12703;SDS011;6416;52.182;7.650;2023-10-08T07:28:02;2.83;;;2.63;;
12703;SDS011;6416;52.182;7.650;2023-10-08T07:30:28;2.87;;;2.67;;
12703;SDS011;6416;52.182;7.650;2023-10-08T07:32:53;3.00;;;2.58;;
12703;SDS011;6416;52.182;7.650;2023-10-08T07:35:19;3.40;;;3.10;;
12703;SDS011;6416;52.182;7.650;2023-10-08T07:37:45;4.38;;;3.03;;
12703;SDS011;6416;52.182;7.650;2023-10-08T07:40:10;3.08;;;2.78;;
12703;SDS011;6416;52.182;7.650;2023-10-08T07:42:36;3.15;;;2.85;;
12703;SDS011;6416;52.182;7.650;2023-10-08T07:45:01;2.70;;;2.50;;
12703;SDS011;6416;52.182;7.650;2023-10-08T07:47:27;3.30;;;2.85;;
12703;SDS011;6416;52.182;7.650;2023-10-08T07:49:52;3.38;;;3.08;;
12703;SDS011;6416;52.182;7.650;2023-10-08T07:52:18;3.10;;;2.78;;
12703;SDS011;6416;52.182;7.650;2023-10-08T07:54:43;3.53;;;3.13;;
12703;SDS011;6416;52.182;7.650;2023-10-08T07:57:09;3.78;;;2.80;;
12703;SDS011;6416;52.182;7.650;2023-10-08T07:59:35;2.72;;;2.53;;
12703;SDS011;6416;52.182;7.650;2023-10-08T08:02:01;2.70;;;2.50;;
12703;SDS011;6416;52.182;7.650;2023-10-08T08:04:26;2.85;;;2.65;;
12703;SDS011;6416;52.182;7.650;2023-10-08T08:06:52;3.20;;;2.72;;
12703;SDS011;6416;52.182;7.650;2023-10-08T08:09:17;2.97;;;2.78;;
12703;SDS011;6416;52.182;7.650;2023-10-08T08:11:43;2.63;;;2.42;;
12703;SDS011;6416;52.182;7.650;2023-10-08T08:14:09;4.45;;;2.83;;
12703;SDS011;6416;52.182;7.650;2023-10-08T08:16:34;3.45;;;3.00;;
12703;SDS011;6416;52.182;7.650;2023-10-08T08:18:59;3.00;;;2.70;;
12703;SDS011;6416;52.182;7.650;2023-10-08T08:21:25;2.92;;;2.63;;
12703;SDS011;6416;52.182;7.650;2023-10-08T08:23:50;9.18;;;2.47;;
12703;SDS011;6416;52.182;7.650;2023-10-08T08:26:16;2.60;;;2.20;;
12703;SDS011;6416;52.182;7.650;2023-10-08T08:28:43;2.50;;;2.30;;
12703;SDS011;6416;52.182;7.650;2023-10-08T08:31:09;2.60;;;2.40;;
12703;SDS011;6416;52.182;7.650;2023-10-08T08:33:34;3.05;;;2.42;;
12703;SDS011;6416;52.182;7.650;2023-10-08T08:36:00;3.33;;;2.20;;
12703;SDS011;6416;52.182;7.650;2023-10-08T08:38:27;4.43;;;2.40;;
12703;SDS011;6416;52.182;7.650;2023-10-08T08:41:01;2.63;;;2.10;;
12703;SDS011;6416;52.182;7.650;2023-10-08T08:43:27;2.72;;;2.50;;
12703;SDS011;6416;52.182;7.650;2023-10-08T08:45:53;2.58;;;2.25;;
12703;SDS011;6416;52.182;7.650;2023-10-08T08:48:18;2.53;;;2.08;;
12703;SDS011;6416;52.182;7.650;2023-10-08T08:50:44;3.53;;;2.13;;
12703;SDS011;6416;52.182;7.650;2023-10-08T08:53:11;2.42;;;2.10;;
12703;SDS011;6416;52.182;7.650;2023-10-08T08:55:37;3.95;;;2.17;;
12703;SDS011;6416;52.182;7.650;2023-10-08T08:58:03;2.15;;;1.92;;
12703;SDS011;6416;52.182;7.650;2023-10-08T09:00:29;4.32;;;1.83;;
12703;SDS011;6416;52.182;7.650;2023-10-08T09:02:55;3.67;;;1.90;;
12703;SDS011;6416;52.182;7.650;2023-10-08T09:05:20;2.13;;;1.90;;
12703;SDS011;6416;52.182;7.650;2023-10-08T09:10:22;4.25;;;2.00;;
12703;SDS011;6416;52.182;7.650;2023-10-08T09:12:47;2.67;;;2.10;;
12703;SDS011;6416;52.182;7.650;2023-10-08T09:15:13;3.35;;;2.20;;
12703;SDS011;6416;52.182;7.650;2023-10-08T09:17:40;4.18;;;2.30;;
12703;SDS011;6416;52.182;7.650;2023-10-08T09:20:06;2.17;;;1.60;;
12703;SDS011;6416;52.182;7.650;2023-10-08T09:22:32;2.67;;;1.73;;
12703;SDS011;6416;52.182;7.650;2023-10-08T09:24:57;3.38;;;1.92;;
12703;SDS011;6416;52.182;7.650;2023-10-08T09:27:23;3.35;;;2.13;;
12703;SDS011;6416;52.182;7.650;2023-10-08T09:29:51;2.13;;;1.67;;
12703;SDS011;6416;52.182;7.650;2023-10-08T09:32:16;3.30;;;1.70;;
12703;SDS011;6416;52.182;7.650;2023-10-08T09:34:42;2.75;;;1.70;;
12703;SDS011;6416;52.182;7.650;2023-10-08T09:37:08;4.07;;;1.63;;
12703;SDS011;6416;52.182;7.650;2023-10-08T09:39:34;4.05;;;1.60;;
12703;SDS011;6416;52.182;7.650;2023-10-08T09:42:03;1.60;;;1.40;;
12703;SDS011;6416;52.182;7.650;2023-10-08T09:44:29;2.35;;;1.50;;
12703;SDS011;6416;52.182;7.650;2023-10-08T09:49:36;3.15;;;1.50;;
12703;SDS011;6416;52.182;7.650;2023-10-08T09:52:04;1.83;;;1.55;;
12703;SDS011;6416;52.182;7.650;2023-10-08T09:54:36;1.83;;;1.27;;
12703;SDS011;6416;52.182;7.650;2023-10-08T09:57:13;3.10;;;1.38;;
12703;SDS011;6416;52.182;7.650;2023-10-08T09:59:40;4.05;;;1.88;;
12703;SDS011;6416;52.182;7.650;2023-10-08T10:02:06;2.80;;;1.20;;
12703;SDS011;6416;52.182;7.650;2023-10-08T10:04:32;3.42;;;1.35;;
12703;SDS011;6416;52.182;7.650;2023-10-08T10:06:58;2.42;;;1.40;;
12703;SDS011;6416;52.182;7.650;2023-10-08T10:09:32;2.42;;;1.30;;
12703;SDS011;6416;52.182;7.650;2023-10-08T10:11:57;2.45;;;1.15;;
12703;SDS011;6416;52.182;7.650;2023-10-08T10:14:23;4.25;;;1.42;;
12703;SDS011;6416;52.182;7.650;2023-10-08T10:17:24;2.53;;;1.48;;
12703;SDS011;6416;52.182;7.650;2023-10-08T10:19:45;3.90;;;1.60;;
12703;SDS011;6416;52.182;7.650;2023-10-08T10:22:14;2.78;;;1.52;;
12703;SDS011;6416;52.182;7.650;2023-10-08T10:24:52;4.63;;;1.42;;
12703;SDS011;6416;52.182;7.650;2023-10-08T10:27:18;2.47;;;1.10;;
12703;SDS011;6416;52.182;7.650;2023-10-08T10:29:43;2.63;;;1.25;;
12703;SDS011;6416;52.182;7.650;2023-10-08T10:32:10;2.47;;;1.40;;
12703;SDS011;6416;52.182;7.650;2023-10-08T10:34:38;2.20;;;1.20;;
12703;SDS011;6416;52.182;7.650;2023-10-08T10:37:04;4.07;;;1.30;;
12703;SDS011;6416;52.182;7.650;2023-10-08T10:39:30;2.03;;;1.05;;
12703;SDS011;6416;52.182;7.650;2023-10-08T10:41:58;1.77;;;1.10;;
12703;SDS011;6416;52.182;7.650;2023-10-08T10:44:24;3.05;;;1.23;;
12703;SDS011;6416;52.182;7.650;2023-10-08T10:46:50;2.80;;;1.38;;
12703;SDS011;6416;52.182;7.650;2023-10-08T10:49:19;3.20;;;1.45;;
12703;SDS011;6416;52.182;7.650;2023-10-08T10:51:49;3.17;;;1.38;;
12703;SDS011;6416;52.182;7.650;2023-10-08T10:54:16;2.05;;;1.10;;
12703;SDS011;6416;52.182;7.650;2023-10-08T10:56:42;2.90;;;1.08;;
12703;SDS011;6416;52.182;7.650;2023-10-08T10:59:07;1.38;;;1.10;;
12703;SDS011;6416;52.182;7.650;2023-10-08T11:01:33;2.50;;;1.17;;
12703;SDS011;6416;52.182;7.650;2023-10-08T11:03:59;2.22;;;1.17;;
12703;SDS011;6416;52.182;7.650;2023-10-08T11:06:24;2.53;;;1.08;;
12703;SDS011;6416;52.182;7.650;2023-10-08T11:08:53;1.85;;;1.20;;
12703;SDS011;6416;52.182;7.650;2023-10-08T11:11:19;3.22;;;1.40;;
12703;SDS011;6416;52.182;7.650;2023-10-08T11:13:51;6.75;;;1.20;;
12703;SDS011;6416;52.182;7.650;2023-10-08T11:16:17;1.90;;;1.02;;
12703;SDS011;6416;52.182;7.650;2023-10-08T11:18:43;2.38;;;1.30;;
12703;SDS011;6416;52.182;7.650;2023-10-08T11:21:10;3.47;;;1.30;;
12703;SDS011;6416;52.182;7.650;2023-10-08T11:23:37;2.22;;;1.30;;
12703;SDS011;6416;52.182;7.650;2023-10-08T11:26:06;2.70;;;1.40;;
12703;SDS011;6416;52.182;7.650;2023-10-08T11:28:32;2.97;;;1.60;;
12703;SDS011;6416;52.182;7.650;2023-10-08T11:31:05;4.65;;;1.52;;
12703;SDS011;6416;52.182;7.650;2023-10-08T11:33:31;1.33;;;1.10;;
12703;SDS011;6416;52.182;7.650;2023-10-08T11:35:57;2.40;;;1.30;;
12703;SDS011;6416;52.182;7.650;2023-10-08T11:38:23;2.22;;;1.40;;
12703;SDS011;6416;52.182;7.650;2023-10-08T11:40:48;2.20;;;1.40;;
12703;SDS011;6416;52.182;7.650;2023-10-08T11:43:14;3.17;;;1.42;;
12703;SDS011;6416;52.182;7.650;2023-10-08T11:45:40;2.83;;;1.20;;
12703;SDS011;6416;52.182;7.650;2023-10-08T11:48:05;4.07;;;1.23;;
12703;SDS011;6416;52.182;7.650;2023-10-08T11:50:31;2.88;;;1.55;;
12703;SDS011;6416;52.182;7.650;2023-10-08T11:53:00;2.25;;;1.17;;
12703;SDS011;6416;52.182;7.650;2023-10-08T11:55:26;2.47;;;1.38;;
12703;SDS011;6416;52.182;7.650;2023-10-08T11:57:52;3.97;;;1.20;;
12703;SDS011;6416;52.182;7.650;2023-10-08T12:00:17;2.67;;;1.33;;
12703;SDS011;6416;52.182;7.650;2023-10-08T12:02:43;4.00;;;1.25;;
12703;SDS011;6416;52.182;7.650;2023-10-08T12:05:08;3.70;;;1.65;;
12703;SDS011;6416;52.182;7.650;2023-10-08T12:07:34;3.90;;;1.65;;
12703;SDS011;6416;52.182;7.650;2023-10-08T12:09:59;4.13;;;1.60;;
12703;SDS011;6416;52.182;7.650;2023-10-08T12:12:25;1.67;;;1.27;;
12703;SDS011;6416;52.182;7.650;2023-10-08T12:14:50;1.77;;;1.00;;
12703;SDS011;6416;52.182;7.650;2023-10-08T12:17:16;3.33;;;1.20;;
12703;SDS011;6416;52.182;7.650;2023-10-08T12:19:41;2.53;;;1.50;;
12703;SDS011;6416;52.182;7.650;2023-10-08T12:22:07;3.08;;;1.25;;
12703;SDS011;6416;52.182;7.650;2023-10-08T12:24:32;1.83;;;1.17;;
12703;SDS011;6416;52.182;7.650;2023-10-08T12:26:58;4.15;;;1.30;;
12703;SDS011;6416;52.182;7.650;2023-10-08T12:29:23;3.28;;;1.38;;
12703;SDS011;6416;52.182;7.650;2023-10-08T12:31:49;2.78;;;2.10;;
12703;SDS011;6416;52.182;7.650;2023-10-08T12:34:14;2.88;;;1.70;;
12703;SDS011;6416;52.182;7.650;2023-10-08T12:36:40;3.72;;;1.40;;
12703;SDS011;6416;52.182;7.650;2023-10-08T12:39:05;3.03;;;1.20;;
12703;SDS011;6416;52.182;7.650;2023-10-08T12:41:31;3.13;;;1.38;;
12703;SDS011;6416;52.182;7.650;2023-10-08T12:43:56;2.13;;;0.98;;
12703;SDS011;6416;52.182;7.650;2023-10-08T12:46:22;2.45;;;1.20;;
12703;SDS011;6416;52.182;7.650;2023-10-08T12:48:47;2.47;;;1.15;;
12703;SDS011;6416;52.182;7.650;2023-10-08T12:51:14;2.65;;;1.08;;
12703;SDS011;6416;52.182;7.650;2023-10-08T12:53:40;3.30;;;1.30;;
12703;SDS011;6416;52.182;7.650;2023-10-08T12:56:06;2.40;;;1.10;;
12703;SDS011;6416;52.182;7.650;2023-10-08T12:58:33;2.58;;;1.08;;
12703;SDS011;6416;52.182;7.650;2023-10-08T13:01:00;2.72;;;1.20;;
12703;SDS011;6416;52.182;7.650;2023-10-08T13:03:26;2.42;;;1.20;;
12703;SDS011;6416;52.182;7.650;2023-10-08T13:05:52;2.88;;;1.40;;
12703;SDS011;6416;52.182;7.650;2023-10-08T13:08:18;3.92;;;1.15;;
12703;SDS011;6416;52.182;7.650;2023-10-08T13:10:44;2.60;;;1.10;;
12703;SDS011;6416;52.182;7.650;2023-10-08T13:13:10;2.33;;;1.00;;
12703;SDS011;6416;52.182;7.650;2023-10-08T13:15:36;2.72;;;1.25;;
12703;SDS011;6416;52.182;7.650;2023-10-08T13:18:02;2.17;;;1.10;;
12703;SDS011;6416;52.182;7.650;2023-10-08T13:20:28;2.10;;;1.40;;
12703;SDS011;6416;52.182;7.650;2023-10-08T13:22:53;4.13;;;1.10;;
12703;SDS011;6416;52.182;7.650;2023-10-08T13:25:19;2.20;;;1.50;;
12703;SDS011;6416;52.182;7.650;2023-10-08T13:27:44;2.22;;;1.50;;
12703;SDS011;6416;52.182;7.650;2023-10-08T13:30:10;2.70;;;1.23;;
12703;SDS011;6416;52.182;7.650;2023-10-08T13:32:38;1.90;;;1.35;;
12703;SDS011;6416;52.182;7.650;2023-10-08T13:35:04;4.95;;;1.65;;
12703;SDS011;6416;52.182;7.650;2023-10-08T13:37:33;1.95;;;1.15;;
12703;SDS011;6416;52.182;7.650;2023-10-08T13:39:59;3.80;;;1.60;;
12703;SDS011;6416;52.182;7.650;2023-10-08T13:42:25;1.45;;;1.20;;
12703;SDS011;6416;52.182;7.650;2023-10-08T13:44:50;3.15;;;1.42;;
12703;SDS011;6416;52.182;7.650;2023-10-08T13:47:16;2.78;;;1.10;;
12703;SDS011;6416;52.182;7.650;2023-10-08T13:49:41;3.03;;;1.23;;
12703;SDS011;6416;52.182;7.650;2023-10-08T13:52:06;2.65;;;1.30;;
12703;SDS011;6416;52.182;7.650;2023-10-08T13:54:32;2.55;;;1.10;;
12703;SDS011;6416;52.182;7.650;2023-10-08T13:56:57;3.10;;;1.30;;
12703;SDS011;6416;52.182;7.650;2023-10-08T13:59:24;2.85;;;1.35;;
12703;SDS011;6416;52.182;7.650;2023-10-08T14:01:49;1.52;;;1.10;;
12703;SDS011;6416;52.182;7.650;2023-10-08T14:04:15;1.20;;;1.00;;
12703;SDS011;6416;52.182;7.650;2023-10-08T14:06:40;2.47;;;1.20;;
12703;SDS011;6416;52.182;7.650;2023-10-08T14:09:06;3.20;;;1.27;;
12703;SDS011;6416;52.182;7.650;2023-10-08T14:11:33;1.98;;;1.02;;
12703;SDS011;6416;52.182;7.650;2023-10-08T14:13:58;2.03;;;1.13;;
12703;SDS011;6416;52.182;7.650;2023-10-08T14:16:24;2.85;;;1.30;;
12703;SDS011;6416;52.182;7.650;2023-10-08T14:18:50;1.55;;;0.80;;
12703;SDS011;6416;52.182;7.650;2023-10-08T14:21:17;3.65;;;1.10;;
12703;SDS011;6416;52.182;7.650;2023-10-08T14:23:43;1.60;;;0.93;;
12703;SDS011;6416;52.182;7.650;2023-10-08T14:26:09;1.45;;;1.08;;
12703;SDS011;6416;52.182;7.650;2023-10-08T14:28:35;2.05;;;1.05;;
12703;SDS011;6416;52.182;7.650;2023-10-08T14:31:01;1.33;;;1.00;;
12703;SDS011;6416;52.182;7.650;2023-10-08T14:33:27;2.17;;;1.15;;
12703;SDS011;6416;52.182;7.650;2023-10-08T14:35:52;1.70;;;1.23;;
12703;SDS011;6416;52.182;7.650;2023-10-08T14:38:18;1.92;;;0.90;;
12703;SDS011;6416;52.182;7.650;2023-10-08T14:40:43;1.67;;;0.90;;
12703;SDS011;6416;52.182;7.650;2023-10-08T14:43:09;1.33;;;0.95;;
12703;SDS011;6416;52.182;7.650;2023-10-08T14:45:34;1.45;;;0.93;;
12703;SDS011;6416;52.182;7.650;2023-10-08T14:48:00;1.08;;;0.98;;
12703;SDS011;6416;52.182;7.650;2023-10-08T14:50:26;1.33;;;0.98;;
12703;SDS011;6416;52.182;7.650;2023-10-08T14:52:53;1.48;;;0.90;;
12703;SDS011;6416;52.182;7.650;2023-10-08T14:55:19;3.58;;;1.20;;
12703;SDS011;6416;52.182;7.650;2023-10-08T14:57:44;2.75;;;1.00;;